createdAt,value
2022-09-11T00:03:24.705Z,18.27
2022-09-11T00:08:27.644Z,17.30
2022-09-11T00:13:29.291Z,18.70
2022-09-11T00:18:31.000Z,19.00
2022-09-11T00:23:33.295Z,18.77
2022-09-11T00:28:37.125Z,19.43
2022-09-11T00:33:39.741Z,18.30
2022-09-11T00:38:42.593Z,18.23
2022-09-11T00:44:02.578Z,18.03
2022-09-11T00:49:14.426Z,22.23
2022-09-11T00:54:19.585Z,16.60
2022-09-11T00:59:25.177Z,15.73
2022-09-11T01:04:28.368Z,16.53
2022-09-11T01:09:30.621Z,16.37
2022-09-11T01:14:44.250Z,17.90
2022-09-11T01:20:23.649Z,17.93
2022-09-11T01:25:55.946Z,18.40
2022-09-11T01:31:02.398Z,18.10
2022-09-11T01:36:07.633Z,19.77
2022-09-11T01:41:29.013Z,21.07
2022-09-11T01:46:35.374Z,20.27
2022-09-11T01:51:38.987Z,18.83
2022-09-11T01:56:46.978Z,19.97
2022-09-11T02:01:52.946Z,22.57
2022-09-11T02:07:12.161Z,22.27
2022-09-11T02:12:21.901Z,21.23
2022-09-11T02:17:45.509Z,21.83
2022-09-11T02:22:52.880Z,23.10
2022-09-11T02:27:54.711Z,22.07
2022-09-11T02:32:56.674Z,27.53
2022-09-11T02:38:07.927Z,25.60
2022-09-11T02:43:39.000Z,24.93
2022-09-11T02:49:19.787Z,27.63
2022-09-11T02:54:39.553Z,26.60
2022-09-11T02:59:53.798Z,25.37
2022-09-11T03:04:56.848Z,25.83
2022-09-11T03:10:01.805Z,29.43
2022-09-11T03:15:04.261Z,26.63
2022-09-11T03:20:06.818Z,26.20
2022-09-11T03:25:08.973Z,28.10
2022-09-11T03:30:10.993Z,43.50
2022-09-11T03:35:12.703Z,38.77
2022-09-11T03:40:14.515Z,45.23
2022-09-11T03:45:16.600Z,48.47
2022-09-11T03:50:18.329Z,42.97
2022-09-11T03:55:20.008Z,39.63
2022-09-11T04:00:22.167Z,46.97
2022-09-11T04:05:33.461Z,68.70
2022-09-11T04:10:35.361Z,47.00
2022-09-11T04:15:37.066Z,43.53
2022-09-11T04:20:39.854Z,51.77
2022-09-11T04:25:41.469Z,54.20
2022-09-11T04:30:43.226Z,51.80
2022-09-11T04:35:45.114Z,75.00
2022-09-11T04:40:46.820Z,56.27
2022-09-11T04:45:48.572Z,47.13
2022-09-11T04:50:50.531Z,51.13
2022-09-11T04:55:52.232Z,46.20
2022-09-11T05:00:54.688Z,54.57
2022-09-11T05:05:56.558Z,86.23
2022-09-11T05:10:59.970Z,69.43
2022-09-11T05:16:06.606Z,60.67
2022-09-11T05:21:13.078Z,61.80
2022-09-11T05:26:19.962Z,65.87
2022-09-11T05:31:32.046Z,71.70
2022-09-11T05:36:38.594Z,82.30
2022-09-11T05:41:41.892Z,58.17
2022-09-11T05:46:53.360Z,74.77
2022-09-11T05:52:01.522Z,45.77
2022-09-11T06:02:24.153Z,62.33
2022-09-11T06:07:33.075Z,41.70
2022-09-11T06:12:38.128Z,45.43
2022-09-11T06:17:39.962Z,42.60
2022-09-11T06:22:43.317Z,45.83
2022-09-11T06:27:45.028Z,41.40
2022-09-11T06:32:48.798Z,45.93
2022-09-11T06:37:50.738Z,42.73
2022-09-11T06:42:54.245Z,43.23
2022-09-11T06:47:55.922Z,39.43
2022-09-11T06:52:57.833Z,32.30
2022-09-11T06:58:07.346Z,36.93
2022-09-11T07:03:14.270Z,29.10
2022-09-11T07:08:16.120Z,25.20
2022-09-11T07:13:34.331Z,25.20
2022-09-11T07:18:45.932Z,30.13
2022-09-11T07:23:50.956Z,26.37
2022-09-11T07:28:56.496Z,26.93
2022-09-11T07:34:04.339Z,26.77
2022-09-11T07:39:13.381Z,29.10
2022-09-11T07:44:36.052Z,29.77
2022-09-11T07:49:45.176Z,23.20
2022-09-11T07:54:58.507Z,26.60
2022-09-11T08:00:05.977Z,23.53
2022-09-11T08:05:09.470Z,25.00
2022-09-11T08:10:27.174Z,21.73
2022-09-11T08:15:31.255Z,21.60
2022-09-11T08:20:36.095Z,21.47
2022-09-11T08:25:38.455Z,24.73
2022-09-11T08:30:42.209Z,21.67
2022-09-11T08:35:47.520Z,19.37
2022-09-11T08:40:49.252Z,17.77
2022-09-11T08:45:52.702Z,16.63
2022-09-11T08:51:02.564Z,19.00
2022-09-11T08:56:24.837Z,18.87
2022-09-11T09:01:55.357Z,22.47
2022-09-11T09:07:04.028Z,22.93
2022-09-11T09:12:16.067Z,22.03
2022-09-11T09:17:39.253Z,24.13
2022-09-11T09:22:54.901Z,22.73
2022-09-11T09:28:09.481Z,23.00
2022-09-11T09:33:27.894Z,24.33
2022-09-11T09:38:38.125Z,19.53
2022-09-11T09:44:10.796Z,18.93
2022-09-11T09:49:30.691Z,19.60
2022-09-11T10:01:04.471Z,19.10
2022-09-11T10:06:06.512Z,17.27
2022-09-11T10:11:24.900Z,18.43
2022-09-11T10:16:28.024Z,16.93
2022-09-11T10:21:35.505Z,16.03
2022-09-11T10:26:46.007Z,18.13
2022-09-11T10:31:53.400Z,16.07
2022-09-11T10:36:56.618Z,15.87
2022-09-11T10:42:02.248Z,15.30
2022-09-11T10:47:29.788Z,14.87
2022-09-11T10:52:31.508Z,15.70
2022-09-11T10:57:48.595Z,17.87
2022-09-11T11:02:54.655Z,14.23
2022-09-11T11:08:24.408Z,13.63
2022-09-11T11:13:30.008Z,12.93
2022-09-11T11:19:13.926Z,14.40
2022-09-11T11:24:37.761Z,11.53
2022-09-11T11:30:03.842Z,11.30
2022-09-11T11:35:45.083Z,10.47
2022-09-11T11:40:49.932Z,10.60
2022-09-11T11:46:02.440Z,11.27
2022-09-11T11:51:07.509Z,10.10
2022-09-11T11:56:18.186Z,9.47
2022-09-11T12:01:43.114Z,7.17
2022-09-11T12:06:44.911Z,9.20
2022-09-11T12:11:49.139Z,8.80
2022-09-11T12:16:52.322Z,9.33
2022-09-11T12:21:54.357Z,8.70
2022-09-11T12:27:32.049Z,11.87
2022-09-11T12:32:51.187Z,7.00
2022-09-11T12:38:00.516Z,10.03
2022-09-11T12:43:31.773Z,7.23
2022-09-11T12:48:39.282Z,5.87
2022-09-11T12:53:46.937Z,9.20
2022-09-11T12:58:58.863Z,11.37
2022-09-11T13:04:10.200Z,5.07
2022-09-11T13:09:30.782Z,5.63
2022-09-11T13:14:32.472Z,8.23
2022-09-11T13:19:36.136Z,5.53
2022-09-11T13:24:37.776Z,6.90
2022-09-11T13:29:40.328Z,5.03
2022-09-11T13:34:51.285Z,4.93
2022-09-11T13:40:31.397Z,5.00
2022-09-11T13:52:10.835Z,7.83
2022-09-11T13:57:29.232Z,4.67
2022-09-11T14:03:22.476Z,4.90
2022-09-11T14:08:36.066Z,12.77
2022-09-11T14:13:49.658Z,10.20
2022-09-11T14:18:55.574Z,7.10
2022-09-11T14:23:58.024Z,5.77
2022-09-11T14:29:02.531Z,6.87
2022-09-11T14:34:10.253Z,7.40
2022-09-11T14:45:40.894Z,7.57
2022-09-11T14:51:16.218Z,5.80
2022-09-11T14:56:18.161Z,7.40
2022-09-11T15:01:19.911Z,7.87
2022-09-11T15:06:51.405Z,4.63
2022-09-11T15:11:53.322Z,5.40
2022-09-11T15:16:58.068Z,3.60
2022-09-11T15:21:59.822Z,6.10
2022-09-11T15:27:01.513Z,3.17
2022-09-11T15:38:27.514Z,5.23
2022-09-11T16:03:12.072Z,6.77
2022-09-11T16:08:15.292Z,4.00
2022-09-11T16:13:18.180Z,2.90
2022-09-11T16:18:19.895Z,3.37
2022-09-11T16:23:21.926Z,2.73
2022-09-11T16:28:23.601Z,3.40
2022-09-11T16:33:25.321Z,4.37
2022-09-11T16:38:30.505Z,4.40
2022-09-11T16:44:07.896Z,3.30
2022-09-11T16:50:14.024Z,3.20
2022-09-11T16:55:15.691Z,3.33
2022-09-11T17:00:17.553Z,3.63
2022-09-11T17:05:19.332Z,5.07
2022-09-11T17:10:21.760Z,4.10
2022-09-11T17:15:25.523Z,4.93
2022-09-11T17:20:27.271Z,4.07
2022-09-11T17:25:43.567Z,4.33
2022-09-11T17:30:52.718Z,3.87
2022-09-11T17:36:05.074Z,3.47
2022-09-11T17:41:23.780Z,5.40
2022-09-11T17:46:26.210Z,4.60
2022-09-11T17:52:13.928Z,3.63
2022-09-11T17:57:16.036Z,3.90
2022-09-11T18:02:18.333Z,4.23
2022-09-11T18:07:20.139Z,3.40
2022-09-11T18:12:21.792Z,4.63
2022-09-11T18:17:23.562Z,4.60
2022-09-11T18:22:25.620Z,4.10
2022-09-11T18:27:27.581Z,5.53
2022-09-11T18:32:30.049Z,6.57
2022-09-11T18:37:31.822Z,4.77
2022-09-11T18:42:33.474Z,3.97
2022-09-11T18:47:35.269Z,5.80
2022-09-11T18:52:36.951Z,4.50
2022-09-11T18:57:42.297Z,4.37
2022-09-11T19:02:56.095Z,6.40
2022-09-11T19:08:00.204Z,5.13
2022-09-11T19:13:36.445Z,7.10
2022-09-11T19:24:46.589Z,8.23
2022-09-11T19:47:09.920Z,6.37
2022-09-11T19:52:24.650Z,6.83
2022-09-11T20:04:12.144Z,6.67
2022-09-11T20:09:39.139Z,5.87
2022-09-11T20:14:42.825Z,6.23
2022-09-11T20:19:46.923Z,6.87
2022-09-11T20:24:51.651Z,8.20
2022-09-11T20:30:00.598Z,6.93
2022-09-11T20:35:02.812Z,6.47
2022-09-11T20:40:08.978Z,7.40
2022-09-11T20:45:11.510Z,11.03
2022-09-11T20:50:13.954Z,7.43
2022-09-11T20:55:15.699Z,8.13
2022-09-11T21:00:17.386Z,8.03
2022-09-11T21:05:19.216Z,8.57
2022-09-11T21:10:20.935Z,7.27
2022-09-11T21:15:22.622Z,7.87
2022-09-11T21:20:24.420Z,8.83
2022-09-11T21:25:28.129Z,8.17
2022-09-11T21:30:29.871Z,9.47
2022-09-11T21:35:31.613Z,6.83
2022-09-11T21:40:33.277Z,8.23
2022-09-11T21:45:34.965Z,7.40
2022-09-11T21:50:37.547Z,8.70
2022-09-11T21:55:44.082Z,9.07
2022-09-11T22:00:48.129Z,9.43
2022-09-11T22:05:51.178Z,9.27
2022-09-11T22:10:52.824Z,10.13
2022-09-11T22:15:54.622Z,10.73
2022-09-11T22:21:00.267Z,11.20
2022-09-11T22:26:17.831Z,11.60
2022-09-11T22:31:22.102Z,16.13
2022-09-11T22:36:27.119Z,16.50
2022-09-11T22:41:28.903Z,13.13
2022-09-11T22:46:30.574Z,14.20
2022-09-11T22:51:33.199Z,12.30
2022-09-11T22:56:35.019Z,13.90
2022-09-11T23:01:37.364Z,14.87
2022-09-11T23:06:57.657Z,14.53
2022-09-11T23:11:59.604Z,14.17
2022-09-11T23:17:01.445Z,13.93
2022-09-11T23:22:03.270Z,12.83
2022-09-11T23:27:05.154Z,13.73
2022-09-11T23:32:07.132Z,20.13
2022-09-11T23:37:08.777Z,13.47
2022-09-11T23:42:10.607Z,13.07
2022-09-11T23:47:12.852Z,15.63
2022-09-11T23:52:14.777Z,14.37
2022-09-11T23:57:16.432Z,14.30
